createdAt,value
2022-11-08T00:00:41.229Z,92.70
2022-11-08T00:01:31.287Z,92.70
2022-11-08T00:02:03.246Z,92.70
2022-11-08T00:02:35.909Z,92.70
2022-11-08T00:03:07.956Z,92.70
2022-11-08T00:03:39.779Z,92.70
2022-11-08T00:04:14.392Z,92.70
2022-11-08T00:04:46.196Z,92.70
2022-11-08T00:05:36.754Z,92.70
2022-11-08T00:06:27.257Z,92.60
2022-11-08T00:07:17.562Z,92.70
2022-11-08T00:08:08.081Z,92.70
2022-11-08T00:08:58.659Z,92.70
2022-11-08T00:09:49.859Z,92.70
2022-11-08T00:10:40.512Z,92.80
2022-11-08T00:11:30.972Z,92.70
2022-11-08T00:12:21.558Z,92.90
2022-11-08T00:13:12.027Z,92.70
2022-11-08T00:14:02.240Z,92.30
2022-11-08T00:14:34.073Z,92.70
2022-11-08T00:15:08.119Z,92.70
2022-11-08T00:15:39.869Z,92.60
2022-11-08T00:16:11.626Z,92.90
2022-11-08T00:16:43.418Z,92.70
2022-11-08T00:17:17.817Z,92.60
2022-11-08T00:17:49.569Z,92.80
2022-11-08T00:18:21.367Z,92.70
2022-11-08T00:18:53.161Z,92.70
2022-11-08T00:19:24.927Z,92.90
2022-11-08T00:19:57.099Z,92.40
2022-11-08T00:20:28.857Z,92.70
2022-11-08T00:21:02.215Z,92.70
2022-11-08T00:21:34.060Z,92.80
2022-11-08T00:22:05.838Z,92.70
2022-11-08T00:22:37.677Z,92.80
2022-11-08T00:23:09.411Z,92.70
2022-11-08T00:23:43.938Z,92.70
2022-11-08T00:24:15.719Z,92.60
2022-11-08T00:24:47.998Z,92.60
2022-11-08T00:25:19.824Z,92.60
2022-11-08T00:25:55.284Z,92.80
2022-11-08T00:26:27.960Z,92.70
2022-11-08T00:26:59.781Z,92.70
2022-11-08T00:27:31.661Z,92.70
2022-11-08T00:28:03.480Z,92.80
2022-11-08T00:28:35.278Z,92.70
2022-11-08T00:29:07.050Z,92.70
2022-11-08T00:29:39.016Z,92.70
2022-11-08T00:30:10.891Z,92.60
2022-11-08T00:30:42.704Z,92.90
2022-11-08T00:31:14.468Z,92.60
2022-11-08T00:31:46.279Z,92.60
2022-11-08T00:32:21.057Z,92.80
2022-11-08T00:32:52.835Z,92.60
2022-11-08T00:33:24.609Z,92.70
2022-11-08T00:33:56.377Z,92.80
2022-11-08T00:34:28.109Z,92.60
2022-11-08T00:34:59.845Z,92.90
2022-11-08T00:35:31.634Z,92.60
2022-11-08T00:36:04.276Z,92.90
2022-11-08T00:36:36.036Z,92.60
2022-11-08T00:37:08.485Z,92.50
2022-11-08T00:37:40.223Z,92.80
2022-11-08T00:38:12.309Z,92.80
2022-11-08T00:38:44.506Z,92.50
2022-11-08T00:39:16.370Z,92.50
2022-11-08T00:39:48.834Z,92.60
2022-11-08T00:40:20.582Z,92.60
2022-11-08T00:40:52.348Z,92.50
2022-11-08T00:41:24.100Z,92.50
2022-11-08T00:41:55.918Z,92.60
2022-11-08T00:42:27.676Z,92.50
2022-11-08T00:42:59.421Z,92.50
2022-11-08T00:43:31.411Z,92.50
2022-11-08T00:44:03.432Z,92.50
2022-11-08T00:44:35.402Z,92.50
2022-11-08T00:45:07.646Z,92.50
2022-11-08T00:45:39.568Z,92.50
2022-11-08T00:46:11.380Z,92.50
2022-11-08T00:46:43.824Z,92.40
2022-11-08T00:47:15.624Z,92.40
2022-11-08T00:47:47.419Z,92.50
2022-11-08T00:48:19.466Z,92.50
2022-11-08T00:48:51.339Z,92.40
2022-11-08T00:49:23.112Z,92.50
2022-11-08T00:49:54.869Z,92.60
2022-11-08T00:50:26.621Z,92.50
2022-11-08T00:51:03.517Z,92.70
2022-11-08T00:51:37.039Z,93.10
2022-11-08T00:52:09.207Z,92.40
2022-11-08T00:52:40.950Z,92.40
2022-11-08T00:53:12.710Z,92.40
2022-11-08T00:53:44.514Z,92.40
2022-11-08T00:54:19.157Z,92.40
2022-11-08T00:54:50.952Z,92.70
2022-11-08T00:55:22.702Z,92.40
2022-11-08T00:56:05.317Z,92.50
2022-11-08T00:56:37.063Z,93.20
2022-11-08T00:57:08.837Z,92.40
2022-11-08T00:57:58.391Z,92.50
2022-11-08T00:58:30.720Z,92.40
2022-11-08T00:59:02.480Z,92.60
2022-11-08T00:59:34.304Z,92.40
2022-11-08T01:00:06.742Z,92.40
2022-11-08T01:00:38.485Z,92.40
2022-11-08T01:01:21.339Z,92.40
2022-11-08T01:01:53.353Z,92.30
2022-11-08T01:02:25.364Z,92.30
2022-11-08T01:03:15.999Z,92.50
2022-11-08T01:03:49.080Z,92.30
2022-11-08T01:04:21.385Z,92.50
2022-11-08T01:04:53.167Z,92.30
2022-11-08T01:05:24.973Z,92.30
2022-11-08T01:05:56.945Z,92.50
2022-11-08T01:06:28.736Z,92.30
2022-11-08T01:07:00.569Z,92.50
2022-11-08T01:07:32.315Z,92.50
2022-11-08T01:08:04.337Z,92.40
2022-11-08T01:08:36.465Z,92.30
2022-11-08T01:09:09.122Z,92.30
2022-11-08T01:09:40.875Z,92.30
2022-11-08T01:10:12.613Z,92.30
2022-11-08T01:10:46.169Z,92.50
2022-11-08T01:11:21.468Z,92.30
2022-11-08T01:11:53.343Z,92.30
2022-11-08T01:12:25.129Z,92.30
2022-11-08T01:12:56.914Z,92.30
2022-11-08T01:13:29.038Z,92.30
2022-11-08T01:14:01.476Z,92.40
2022-11-08T01:14:33.252Z,92.20
2022-11-08T01:15:05.342Z,92.30
2022-11-08T01:15:43.048Z,92.20
2022-11-08T01:16:20.335Z,92.50
2022-11-08T01:16:52.365Z,92.30
2022-11-08T01:17:24.134Z,92.30
2022-11-08T01:17:55.908Z,92.40
2022-11-08T01:18:27.700Z,92.20
2022-11-08T01:19:00.585Z,92.30
2022-11-08T01:19:32.369Z,92.30
2022-11-08T01:20:05.154Z,92.20
2022-11-08T01:20:41.091Z,92.20
2022-11-08T01:21:14.077Z,92.20
2022-11-08T01:21:45.900Z,92.30
2022-11-08T01:22:17.681Z,92.30
2022-11-08T01:22:49.477Z,92.30
2022-11-08T01:23:21.288Z,92.50
2022-11-08T01:23:54.502Z,92.20
2022-11-08T01:24:26.276Z,92.30
2022-11-08T01:24:58.020Z,92.30
2022-11-08T01:25:29.806Z,92.40
2022-11-08T01:26:10.736Z,92.30
2022-11-08T01:26:42.555Z,92.20
2022-11-08T01:27:14.322Z,92.30
2022-11-08T01:27:46.153Z,92.30
2022-11-08T01:28:18.228Z,91.70
2022-11-08T01:28:50.541Z,92.30
2022-11-08T01:29:22.318Z,92.30
2022-11-08T01:29:54.117Z,92.20
2022-11-08T01:30:25.930Z,92.20
2022-11-08T01:30:57.744Z,92.20
2022-11-08T01:31:32.521Z,92.20
2022-11-08T01:32:04.385Z,92.40
2022-11-08T01:32:36.172Z,92.20
2022-11-08T01:33:08.777Z,91.80
2022-11-08T01:33:40.935Z,92.40
2022-11-08T01:34:12.701Z,92.20
2022-11-08T01:34:44.488Z,92.20
2022-11-08T01:35:16.270Z,92.20
2022-11-08T01:35:47.992Z,92.20
2022-11-08T01:36:22.884Z,92.20
2022-11-08T01:36:54.707Z,92.10
2022-11-08T01:37:26.491Z,92.40
2022-11-08T01:37:59.429Z,92.20
2022-11-08T01:38:31.253Z,92.20
2022-11-08T01:39:03.216Z,92.20
2022-11-08T01:39:35.097Z,92.20
2022-11-08T01:40:07.762Z,92.20
2022-11-08T01:40:47.424Z,92.10
2022-11-08T01:41:21.839Z,92.20
2022-11-08T01:41:53.601Z,92.20
2022-11-08T01:42:29.228Z,92.20
2022-11-08T01:43:25.406Z,92.20
2022-11-08T01:44:00.617Z,92.20
2022-11-08T01:44:32.441Z,92.30
2022-11-08T01:45:07.147Z,92.20
2022-11-08T01:46:16.358Z,92.10
2022-11-08T01:46:48.266Z,92.20
2022-11-08T01:47:20.029Z,92.10
2022-11-08T01:47:51.836Z,92.20
2022-11-08T01:48:26.909Z,92.20
2022-11-08T01:49:18.906Z,92.20
2022-11-08T01:49:54.134Z,92.20
2022-11-08T01:50:25.994Z,92.20
2022-11-08T01:50:59.566Z,92.10
2022-11-08T01:51:36.829Z,92.10
2022-11-08T01:52:23.578Z,92.20
2022-11-08T01:52:56.046Z,92.10
2022-11-08T01:53:28.904Z,92.30
2022-11-08T01:54:06.601Z,92.20
2022-11-08T01:54:42.827Z,92.10
2022-11-08T01:55:25.013Z,92.30
2022-11-08T01:55:57.373Z,92.10
2022-11-08T01:56:29.503Z,92.10
2022-11-08T01:57:05.374Z,92.20
2022-11-08T01:57:57.466Z,92.40
2022-11-08T01:58:34.693Z,92.10
2022-11-08T01:59:09.439Z,92.10
2022-11-08T01:59:45.125Z,92.10
2022-11-08T02:00:18.033Z,92.10
2022-11-08T02:00:50.279Z,92.10
2022-11-08T02:01:22.262Z,91.40
2022-11-08T02:01:54.354Z,92.20
2022-11-08T02:02:28.232Z,92.20
2022-11-08T02:03:02.060Z,92.20
2022-11-08T02:03:35.444Z,92.20
2022-11-08T02:04:07.513Z,92.10
2022-11-08T02:04:42.653Z,92.10
2022-11-08T02:05:25.297Z,92.10
2022-11-08T02:05:57.412Z,92.60
2022-11-08T02:06:32.874Z,92.10
2022-11-08T02:07:07.592Z,92.10
2022-11-08T02:07:39.370Z,92.10
2022-11-08T02:08:31.274Z,92.20
2022-11-08T02:09:08.606Z,92.10
2022-11-08T02:09:43.408Z,92.10
2022-11-08T02:10:15.533Z,92.10
2022-11-08T02:10:51.265Z,92.10
2022-11-08T02:11:23.473Z,92.10
2022-11-08T02:11:55.873Z,92.30
2022-11-08T02:12:28.711Z,92.10
2022-11-08T02:13:04.761Z,92.10
2022-11-08T02:13:39.063Z,92.10
2022-11-08T02:14:11.096Z,92.30
2022-11-08T02:14:42.930Z,92.10
2022-11-08T02:15:18.034Z,92.30
2022-11-08T02:15:50.372Z,92.10
2022-11-08T02:16:22.165Z,92.10
2022-11-08T02:16:53.952Z,92.20
2022-11-08T02:17:25.818Z,92.20
2022-11-08T02:17:57.654Z,92.10
2022-11-08T02:18:32.488Z,92.30
2022-11-08T02:19:07.698Z,92.10
2022-11-08T02:19:41.525Z,92.30
2022-11-08T02:20:13.357Z,92.10
2022-11-08T02:21:13.849Z,92.40
2022-11-08T02:22:11.112Z,92.10
2022-11-08T02:22:58.974Z,92.10
2022-11-08T02:23:47.342Z,92.10
2022-11-08T02:24:19.213Z,92.10
2022-11-08T02:24:51.151Z,92.30
2022-11-08T02:25:23.193Z,92.40
2022-11-08T02:25:55.162Z,92.10
2022-11-08T02:26:33.011Z,92.10
2022-11-08T02:27:05.066Z,92.10
2022-11-08T02:27:36.837Z,92.20
2022-11-08T02:28:08.786Z,92.10
2022-11-08T02:28:42.657Z,92.10
2022-11-08T02:29:30.002Z,92.10
2022-11-08T02:30:01.745Z,92.10
2022-11-08T02:30:35.233Z,92.20
2022-11-08T02:31:11.281Z,92.10
2022-11-08T02:31:43.048Z,92.10
2022-11-08T02:32:14.869Z,92.20
2022-11-08T02:32:47.176Z,92.20
2022-11-08T02:33:21.730Z,92.10
2022-11-08T02:33:53.501Z,92.10
2022-11-08T02:34:31.358Z,92.10
2022-11-08T02:35:04.036Z,92.10
2022-11-08T02:35:35.947Z,92.10
2022-11-08T02:36:10.112Z,92.10
2022-11-08T02:36:46.213Z,92.10
2022-11-08T02:37:21.021Z,91.50
2022-11-08T02:37:53.117Z,92.10
2022-11-08T02:38:26.749Z,92.20
2022-11-08T02:38:58.701Z,92.10
2022-11-08T02:39:32.879Z,92.20
2022-11-08T02:40:05.853Z,92.20
2022-11-08T02:40:55.110Z,92.20
2022-11-08T02:41:26.891Z,92.10
2022-11-08T02:41:58.974Z,92.30
2022-11-08T02:42:30.937Z,92.10
2022-11-08T02:43:02.674Z,92.20
2022-11-08T02:43:34.499Z,92.20
2022-11-08T02:44:06.395Z,92.20
2022-11-08T02:44:38.185Z,92.20
2022-11-08T02:45:10.794Z,92.20
2022-11-08T02:45:42.641Z,92.10
2022-11-08T02:46:14.465Z,92.20
2022-11-08T02:46:46.262Z,92.20
2022-11-08T02:47:18.215Z,92.30
2022-11-08T02:47:49.994Z,92.20
2022-11-08T02:48:21.865Z,92.30
2022-11-08T02:48:53.713Z,92.20
2022-11-08T02:49:25.491Z,91.70
2022-11-08T02:49:57.313Z,92.20
2022-11-08T02:50:29.101Z,92.30
2022-11-08T02:51:00.885Z,92.20
2022-11-08T02:51:32.749Z,92.40
2022-11-08T02:52:05.558Z,92.40
2022-11-08T02:52:37.377Z,92.30
2022-11-08T02:53:09.594Z,92.30
2022-11-08T02:53:41.431Z,92.50
2022-11-08T02:54:13.242Z,92.20
2022-11-08T02:54:45.056Z,92.40
2022-11-08T02:55:16.866Z,92.20
2022-11-08T02:55:48.681Z,92.30
2022-11-08T02:56:20.482Z,92.20
2022-11-08T02:56:52.248Z,92.30
2022-11-08T02:57:23.993Z,92.30
2022-11-08T02:57:56.651Z,92.20
2022-11-08T02:58:28.453Z,92.20
2022-11-08T02:59:00.254Z,92.20
2022-11-08T02:59:32.181Z,92.20
2022-11-08T03:00:04.485Z,92.30
2022-11-08T03:00:36.245Z,92.30
2022-11-08T03:01:08.078Z,92.30
2022-11-08T03:01:40.039Z,92.40
2022-11-08T03:02:11.988Z,92.30
2022-11-08T03:02:43.809Z,92.30
2022-11-08T03:03:15.889Z,92.30
2022-11-08T03:03:47.868Z,92.30
2022-11-08T03:04:19.606Z,92.30
2022-11-08T03:04:51.379Z,92.30
2022-11-08T03:05:24.714Z,92.30
2022-11-08T03:05:57.425Z,92.40
2022-11-08T03:06:29.245Z,92.60
2022-11-08T03:07:01.028Z,92.30
2022-11-08T03:07:33.027Z,92.90
2022-11-08T03:08:05.057Z,92.30
2022-11-08T03:08:36.954Z,92.30
2022-11-08T03:09:08.730Z,92.30
2022-11-08T03:09:40.480Z,92.30
2022-11-08T03:10:13.327Z,92.40
2022-11-08T03:10:45.077Z,92.40
2022-11-08T03:11:16.839Z,92.40
2022-11-08T03:11:48.600Z,92.60
2022-11-08T03:12:20.380Z,92.50
2022-11-08T03:12:56.365Z,92.50
2022-11-08T03:13:28.229Z,92.30
2022-11-08T03:14:00.039Z,92.40
2022-11-08T03:14:32.006Z,92.40
2022-11-08T03:15:05.414Z,92.40
2022-11-08T03:15:37.191Z,92.40
2022-11-08T03:16:09.220Z,92.60
2022-11-08T03:16:40.986Z,92.40
2022-11-08T03:17:12.774Z,92.40
2022-11-08T03:17:44.506Z,92.40
2022-11-08T03:18:16.495Z,92.60
2022-11-08T03:18:48.597Z,92.50
2022-11-08T03:19:20.359Z,92.40
2022-11-08T03:19:52.123Z,92.40
2022-11-08T03:20:28.285Z,92.50
2022-11-08T03:21:03.065Z,92.50
2022-11-08T03:21:36.640Z,92.50
2022-11-08T03:22:08.461Z,92.70
2022-11-08T03:22:40.260Z,92.60
2022-11-08T03:23:12.048Z,92.50
2022-11-08T03:23:43.922Z,92.60
2022-11-08T03:24:15.768Z,92.60
2022-11-08T03:24:47.570Z,92.60
2022-11-08T03:25:19.313Z,92.70
2022-11-08T03:25:51.185Z,92.60
2022-11-08T03:26:23.068Z,92.70
2022-11-08T03:26:54.799Z,92.70
2022-11-08T03:27:27.042Z,92.40
2022-11-08T03:28:03.209Z,92.60
2022-11-08T03:28:35.077Z,92.60
2022-11-08T03:29:06.931Z,92.70
2022-11-08T03:29:38.683Z,92.60
2022-11-08T03:30:10.585Z,92.60
2022-11-08T03:30:42.362Z,92.30
2022-11-08T03:31:14.114Z,92.60
2022-11-08T03:31:46.157Z,92.90
2022-11-08T03:32:17.897Z,92.70
2022-11-08T03:32:52.604Z,92.70
2022-11-08T03:33:25.017Z,92.60
2022-11-08T03:33:56.777Z,92.90
2022-11-08T03:34:28.574Z,92.60
2022-11-08T03:35:00.985Z,92.70
2022-11-08T03:35:32.803Z,92.70
2022-11-08T03:36:05.011Z,92.80
2022-11-08T03:36:36.817Z,92.70
2022-11-08T03:37:10.273Z,92.70
2022-11-08T03:37:48.966Z,92.70
2022-11-08T03:38:20.916Z,92.80
2022-11-08T03:38:52.776Z,92.70
2022-11-08T03:39:24.677Z,92.90
2022-11-08T03:39:56.440Z,92.80
2022-11-08T03:40:28.392Z,92.60
2022-11-08T03:41:00.195Z,92.70
2022-11-08T03:41:31.917Z,92.70
2022-11-08T03:42:04.593Z,92.70
2022-11-08T03:42:36.361Z,92.70
2022-11-08T03:43:08.154Z,92.70
2022-11-08T03:43:39.917Z,92.70
2022-11-08T03:44:11.664Z,92.70
2022-11-08T03:44:43.404Z,92.70
2022-11-08T03:45:16.184Z,92.70
2022-11-08T03:45:47.950Z,93.50
2022-11-08T03:46:19.703Z,92.70
2022-11-08T03:46:51.496Z,92.70
2022-11-08T03:47:23.260Z,92.70
2022-11-08T03:47:55.115Z,92.70
2022-11-08T03:48:26.877Z,92.70
2022-11-08T03:48:58.661Z,92.70
2022-11-08T03:49:30.420Z,92.70
2022-11-08T03:50:02.182Z,92.70
2022-11-08T03:50:33.987Z,92.70
2022-11-08T03:51:05.853Z,92.60
2022-11-08T03:51:37.617Z,93.00
2022-11-08T03:52:09.403Z,92.80
2022-11-08T03:52:52.000Z,92.70
2022-11-08T03:53:23.825Z,92.60
2022-11-08T03:53:55.599Z,92.60
2022-11-08T03:54:27.387Z,92.60
2022-11-08T03:54:59.112Z,92.60
2022-11-08T03:55:31.490Z,92.80
2022-11-08T03:56:03.515Z,92.70
2022-11-08T03:56:35.286Z,92.60
2022-11-08T03:57:07.090Z,92.60
2022-11-08T03:57:40.774Z,92.60
2022-11-08T03:58:12.579Z,92.70
2022-11-08T03:58:44.394Z,92.50
2022-11-08T03:59:16.228Z,92.80
2022-11-08T03:59:47.964Z,92.50
2022-11-08T04:00:22.957Z,92.60
2022-11-08T04:00:54.791Z,92.50
2022-11-08T04:01:26.763Z,92.50
2022-11-08T04:01:58.746Z,91.80
2022-11-08T04:02:30.647Z,92.60
2022-11-08T04:03:04.045Z,92.50
2022-11-08T04:03:35.848Z,92.50
2022-11-08T04:04:07.670Z,92.70
2022-11-08T04:04:39.453Z,92.80
2022-11-08T04:05:12.858Z,92.60
2022-11-08T04:05:44.672Z,92.60
2022-11-08T04:06:16.504Z,92.50
2022-11-08T04:06:48.285Z,92.50
2022-11-08T04:07:20.033Z,92.50
2022-11-08T04:07:52.005Z,92.50
2022-11-08T04:08:23.775Z,92.50
2022-11-08T04:08:55.582Z,92.70
2022-11-08T04:09:27.335Z,92.50
2022-11-08T04:09:59.125Z,92.50
2022-11-08T04:10:30.948Z,91.70
2022-11-08T04:11:22.661Z,92.70
2022-11-08T04:12:12.833Z,92.50
2022-11-08T04:13:03.325Z,92.40
2022-11-08T04:13:53.891Z,92.40
2022-11-08T04:14:44.554Z,92.50
2022-11-08T04:15:21.045Z,93.00
2022-11-08T04:15:56.009Z,92.40
2022-11-08T04:16:27.883Z,92.40
2022-11-08T04:16:59.723Z,92.40
2022-11-08T04:17:50.415Z,92.60
2022-11-08T04:18:41.012Z,92.40
2022-11-08T04:19:31.514Z,92.40
2022-11-08T04:20:22.000Z,92.30
2022-11-08T04:21:12.790Z,92.30
2022-11-08T04:21:50.851Z,92.30
2022-11-08T04:22:22.624Z,92.30
2022-11-08T04:22:54.380Z,92.30
2022-11-08T04:23:26.719Z,92.30
2022-11-08T04:23:58.453Z,92.30
2022-11-08T04:24:30.245Z,92.40
2022-11-08T04:25:01.993Z,92.20
2022-11-08T04:25:35.222Z,92.30
2022-11-08T04:26:11.566Z,92.20
2022-11-08T04:26:43.380Z,92.20
2022-11-08T04:27:15.158Z,92.30
2022-11-08T04:27:46.904Z,92.40
2022-11-08T04:28:19.113Z,92.20
2022-11-08T04:28:51.179Z,92.50
2022-11-08T04:29:22.952Z,92.30
2022-11-08T04:29:54.674Z,92.40
2022-11-08T04:30:26.433Z,92.30
2022-11-08T04:31:04.860Z,92.50
2022-11-08T04:31:37.237Z,92.20
2022-11-08T04:32:08.978Z,92.20
2022-11-08T04:32:40.763Z,92.20
2022-11-08T04:33:12.552Z,92.30
2022-11-08T04:33:44.927Z,92.20
2022-11-08T04:34:16.661Z,92.20
2022-11-08T04:34:48.402Z,92.30
2022-11-08T04:35:20.271Z,92.30
2022-11-08T04:35:53.167Z,92.20
2022-11-08T04:36:25.497Z,92.10
2022-11-08T04:36:57.245Z,92.40
2022-11-08T04:37:28.984Z,93.20
2022-11-08T04:38:01.926Z,92.20
2022-11-08T04:38:33.773Z,92.30
2022-11-08T04:39:05.584Z,92.40
2022-11-08T04:39:37.363Z,92.20
2022-11-08T04:40:09.951Z,92.20
2022-11-08T04:40:41.755Z,92.10
2022-11-08T04:41:15.493Z,92.10
2022-11-08T04:41:47.301Z,92.20
2022-11-08T04:42:19.057Z,92.10
2022-11-08T04:42:50.862Z,92.10
2022-11-08T04:43:22.608Z,92.10
2022-11-08T04:43:56.233Z,91.90
2022-11-08T04:44:27.994Z,92.10
2022-11-08T04:44:59.761Z,92.10
2022-11-08T04:45:31.520Z,92.30
2022-11-08T04:46:06.393Z,92.10
2022-11-08T04:46:38.241Z,92.00
2022-11-08T04:47:10.159Z,92.00
2022-11-08T04:47:47.197Z,92.00
2022-11-08T04:48:20.351Z,92.00
2022-11-08T04:48:54.658Z,92.10
2022-11-08T04:49:26.424Z,92.00
2022-11-08T04:49:58.158Z,92.10
2022-11-08T04:50:30.103Z,92.20
2022-11-08T04:51:09.763Z,92.10
2022-11-08T04:51:41.600Z,92.00
2022-11-08T04:52:13.342Z,92.20
2022-11-08T04:52:54.881Z,92.00
2022-11-08T04:53:26.905Z,91.90
2022-11-08T04:54:00.873Z,91.90
2022-11-08T04:54:32.632Z,91.90
2022-11-08T04:55:04.700Z,92.00
2022-11-08T04:55:37.165Z,91.90
2022-11-08T04:56:12.097Z,92.00
2022-11-08T04:56:43.869Z,91.90
2022-11-08T04:57:16.295Z,92.00
2022-11-08T04:57:48.973Z,91.90
2022-11-08T04:58:21.281Z,92.00
2022-11-08T04:58:55.628Z,92.10
2022-11-08T04:59:27.374Z,92.00
2022-11-08T04:59:59.123Z,92.20
2022-11-08T05:00:30.874Z,92.10
2022-11-08T05:01:04.363Z,92.00
2022-11-08T05:01:36.425Z,92.20
2022-11-08T05:02:08.372Z,92.00
2022-11-08T05:02:40.341Z,92.00
2022-11-08T05:03:12.255Z,91.90
2022-11-08T05:03:46.647Z,91.90
2022-11-08T05:04:18.553Z,92.20
2022-11-08T05:04:50.377Z,91.90
2022-11-08T05:05:23.309Z,91.70
2022-11-08T05:05:55.087Z,92.00
2022-11-08T05:06:31.770Z,92.20
2022-11-08T05:07:03.566Z,92.00
2022-11-08T05:07:35.421Z,92.00
2022-11-08T05:08:07.199Z,92.00
2022-11-08T05:08:39.441Z,92.00
2022-11-08T05:09:11.230Z,92.20
2022-11-08T05:09:43.034Z,92.00
2022-11-08T05:10:15.026Z,91.90
2022-11-08T05:10:46.938Z,92.00
2022-11-08T05:11:21.412Z,91.90
2022-11-08T05:11:53.187Z,91.90
2022-11-08T05:12:25.034Z,92.10
2022-11-08T05:12:57.677Z,92.00
2022-11-08T05:13:30.025Z,91.90
2022-11-08T05:14:01.818Z,91.90
2022-11-08T05:14:33.579Z,91.40
2022-11-08T05:15:05.926Z,91.40
2022-11-08T05:15:37.682Z,91.90
2022-11-08T05:16:15.312Z,91.90
2022-11-08T05:16:47.122Z,93.20
2022-11-08T05:17:19.101Z,92.00
2022-11-08T05:17:50.934Z,91.90
2022-11-08T05:18:22.717Z,92.00
2022-11-08T05:18:54.926Z,92.10
2022-11-08T05:19:45.329Z,92.00
2022-11-08T05:20:36.029Z,91.90
2022-11-08T05:21:29.471Z,92.10
2022-11-08T05:22:19.937Z,91.90
2022-11-08T05:23:24.354Z,91.90
2022-11-08T05:23:57.001Z,92.00
2022-11-08T05:24:28.881Z,91.90
2022-11-08T05:25:00.618Z,91.90
2022-11-08T05:25:32.387Z,91.90
2022-11-08T05:26:04.236Z,91.90
2022-11-08T05:26:38.756Z,91.90
2022-11-08T05:27:10.508Z,92.90
2022-11-08T05:27:42.277Z,92.00
2022-11-08T05:28:14.382Z,91.90
2022-11-08T05:28:47.210Z,91.90
2022-11-08T05:29:18.973Z,91.90
2022-11-08T05:29:50.724Z,91.90
2022-11-08T05:30:22.527Z,91.90
2022-11-08T05:30:56.099Z,91.90
2022-11-08T05:31:28.013Z,92.00
2022-11-08T05:31:59.794Z,92.00
2022-11-08T05:32:31.539Z,91.90
2022-11-08T05:33:03.653Z,92.00
2022-11-08T05:33:35.917Z,91.90
2022-11-08T05:34:07.751Z,92.00
2022-11-08T05:34:39.529Z,91.90
2022-11-08T05:35:11.295Z,91.90
2022-11-08T05:35:43.022Z,92.00
2022-11-08T05:36:16.237Z,91.90
2022-11-08T05:36:48.053Z,91.90
2022-11-08T05:37:19.894Z,91.90
2022-11-08T05:37:51.645Z,92.00
2022-11-08T05:38:23.473Z,92.00
2022-11-08T05:38:56.202Z,92.00
2022-11-08T05:40:19.788Z,91.90
2022-11-08T05:40:51.830Z,91.90
2022-11-08T05:41:24.901Z,91.90
2022-11-08T05:41:56.747Z,91.90
2022-11-08T05:42:28.652Z,91.90
2022-11-08T05:43:00.418Z,92.00
2022-11-08T05:43:32.457Z,91.90
2022-11-08T05:44:04.210Z,92.00
2022-11-08T05:44:35.980Z,91.90
2022-11-08T05:45:09.415Z,92.00
2022-11-08T05:45:41.499Z,91.90
2022-11-08T05:46:13.941Z,91.90
2022-11-08T05:46:45.766Z,91.90
2022-11-08T05:47:17.511Z,91.90
2022-11-08T05:47:49.709Z,91.40
2022-11-08T05:48:21.445Z,92.20
2022-11-08T05:48:53.581Z,91.90
2022-11-08T05:49:25.330Z,91.90
2022-11-08T05:49:57.119Z,91.90
2022-11-08T05:50:29.841Z,92.00
2022-11-08T05:51:12.038Z,91.90
2022-11-08T05:51:43.813Z,91.90
2022-11-08T05:52:15.550Z,92.10
2022-11-08T05:52:47.412Z,92.00
2022-11-08T05:53:19.610Z,91.70
2022-11-08T05:53:52.042Z,91.90
2022-11-08T05:54:23.784Z,92.00
2022-11-08T05:54:55.595Z,91.90
2022-11-08T05:55:27.768Z,92.00
2022-11-08T05:56:01.393Z,91.90
2022-11-08T05:56:33.177Z,91.90
2022-11-08T05:57:04.953Z,92.50
2022-11-08T05:57:36.750Z,91.90
2022-11-08T05:58:08.859Z,92.00
2022-11-08T05:58:40.670Z,92.10
2022-11-08T05:59:12.436Z,92.00
2022-11-08T05:59:44.188Z,92.00
2022-11-08T06:00:16.261Z,92.20
2022-11-08T06:00:48.009Z,92.00
2022-11-08T06:01:20.765Z,92.00
2022-11-08T06:01:52.563Z,92.00
2022-11-08T06:02:24.766Z,92.00
2022-11-08T06:02:56.682Z,92.10
2022-11-08T06:03:29.236Z,92.00
2022-11-08T06:04:01.401Z,92.00
2022-11-08T06:04:33.160Z,92.00
2022-11-08T06:05:05.736Z,92.20
2022-11-08T06:05:37.673Z,92.00
2022-11-08T06:06:15.316Z,92.00
2022-11-08T06:06:50.135Z,92.00
2022-11-08T06:07:21.908Z,92.00
2022-11-08T06:07:54.505Z,92.10
2022-11-08T06:08:26.312Z,92.10
2022-11-08T06:08:58.062Z,92.00
2022-11-08T06:09:29.818Z,92.20
2022-11-08T06:10:01.850Z,92.00
2022-11-08T06:10:33.615Z,92.20
2022-11-08T06:11:10.341Z,92.00
2022-11-08T06:11:42.114Z,92.30
2022-11-08T06:12:13.887Z,92.00
2022-11-08T06:12:45.718Z,92.00
2022-11-08T06:13:17.768Z,92.00
2022-11-08T06:13:50.792Z,92.10
2022-11-08T06:14:22.589Z,92.00
2022-11-08T06:14:54.400Z,92.10
2022-11-08T06:15:26.188Z,92.10
2022-11-08T06:16:07.229Z,92.10
2022-11-08T06:16:38.973Z,92.10
2022-11-08T06:17:10.696Z,92.10
2022-11-08T06:17:42.453Z,92.10
2022-11-08T06:18:14.199Z,92.10
2022-11-08T06:18:46.911Z,92.30
2022-11-08T06:19:18.692Z,92.10
2022-11-08T06:19:50.461Z,92.20
2022-11-08T06:20:22.245Z,92.30
2022-11-08T06:20:54.063Z,92.20
2022-11-08T06:21:27.245Z,92.10
2022-11-08T06:21:58.977Z,92.40
2022-11-08T06:22:32.600Z,92.10
2022-11-08T06:23:04.369Z,92.20
2022-11-08T06:23:36.573Z,92.20
2022-11-08T06:24:08.519Z,91.90
2022-11-08T06:24:40.266Z,92.20
2022-11-08T06:25:12.071Z,92.20
2022-11-08T06:25:47.703Z,92.30
2022-11-08T06:26:19.613Z,92.10
2022-11-08T06:26:51.427Z,92.20
2022-11-08T06:27:23.344Z,92.20
2022-11-08T06:27:55.110Z,92.20
2022-11-08T06:28:27.181Z,92.20
2022-11-08T06:28:58.956Z,92.20
2022-11-08T06:29:30.698Z,92.20
2022-11-08T06:30:04.370Z,92.20
2022-11-08T06:30:36.485Z,92.20
2022-11-08T06:31:08.578Z,92.20
2022-11-08T06:31:43.021Z,92.40
2022-11-08T06:32:15.264Z,92.20
2022-11-08T06:32:47.050Z,92.20
2022-11-08T06:33:20.735Z,92.20
2022-11-08T06:33:52.673Z,92.20
2022-11-08T06:34:25.035Z,92.20
2022-11-08T06:34:56.793Z,92.40
2022-11-08T06:35:28.562Z,92.20
2022-11-08T06:36:00.331Z,92.20
2022-11-08T06:36:32.086Z,92.20
2022-11-08T06:37:05.047Z,92.20
2022-11-08T06:37:36.858Z,92.20
2022-11-08T06:38:09.652Z,92.20
2022-11-08T06:38:41.587Z,92.30
2022-11-08T06:39:13.419Z,92.20
2022-11-08T06:39:45.406Z,92.20
2022-11-08T06:40:17.322Z,92.20
2022-11-08T06:40:49.205Z,92.20
2022-11-08T06:41:22.645Z,92.20
2022-11-08T06:41:54.514Z,92.20
2022-11-08T06:42:26.748Z,92.20
2022-11-08T06:42:59.412Z,92.30
2022-11-08T06:43:31.224Z,92.20
2022-11-08T06:44:03.546Z,92.20
2022-11-08T06:44:35.497Z,92.20
2022-11-08T06:45:07.722Z,92.20
2022-11-08T06:45:40.153Z,92.20
2022-11-08T06:46:11.937Z,92.20
2022-11-08T06:46:43.715Z,92.20
2022-11-08T06:47:15.526Z,92.20
2022-11-08T06:47:47.293Z,92.10
2022-11-08T06:48:19.046Z,92.40
2022-11-08T06:48:50.947Z,92.30
2022-11-08T06:49:24.030Z,92.10
2022-11-08T06:49:55.760Z,92.30
2022-11-08T06:50:29.243Z,92.40
2022-11-08T06:51:02.036Z,92.20
2022-11-08T06:51:33.855Z,92.30
2022-11-08T06:52:05.613Z,92.10
2022-11-08T06:52:37.403Z,91.60
2022-11-08T06:53:12.589Z,92.10
2022-11-08T06:53:45.139Z,92.40
2022-11-08T06:54:18.160Z,92.40
2022-11-08T06:54:49.975Z,92.10
2022-11-08T06:55:21.693Z,92.20
2022-11-08T06:55:53.475Z,92.10
2022-11-08T06:56:25.213Z,92.10
2022-11-08T06:57:00.306Z,92.10
2022-11-08T06:57:33.129Z,92.10
2022-11-08T06:58:05.296Z,92.30
2022-11-08T06:58:37.720Z,92.10
2022-11-08T06:59:09.924Z,92.10
2022-11-08T06:59:41.715Z,92.10
2022-11-08T07:00:15.197Z,92.10
2022-11-08T07:00:46.992Z,92.10
2022-11-08T07:01:18.908Z,92.20
2022-11-08T07:01:50.844Z,92.10
2022-11-08T07:02:22.878Z,92.40
2022-11-08T07:02:57.051Z,92.10
2022-11-08T07:03:29.022Z,92.30
2022-11-08T07:04:00.765Z,92.10
2022-11-08T07:04:32.528Z,92.20
2022-11-08T07:05:04.537Z,92.10
2022-11-08T07:05:36.677Z,92.20
2022-11-08T07:06:08.763Z,92.30
2022-11-08T07:06:40.518Z,92.20
2022-11-08T07:07:12.284Z,92.10
2022-11-08T07:07:44.083Z,92.20
2022-11-08T07:08:20.741Z,92.20
2022-11-08T07:08:55.236Z,92.20
2022-11-08T07:09:26.998Z,92.20
2022-11-08T07:10:03.951Z,92.20
2022-11-08T07:10:36.472Z,91.90
2022-11-08T07:11:09.046Z,92.20
2022-11-08T07:11:40.797Z,92.20
2022-11-08T07:12:12.537Z,92.20
2022-11-08T07:12:44.366Z,92.20
2022-11-08T07:13:16.424Z,92.30
2022-11-08T07:13:48.591Z,92.20